Main page
METAR-TAF:

METAR-TAF

Airports :

Avignon – Provence Airport

Avignon, France

latitude: 43-54-26N, longitude: 004-54-07E, elevation: 38 m

Current weather observation

The report was made 17 minutes ago, at 01:30 UTC
Wind 2 kt from the West/Northwest
Temperature 2°C
Humidity 87%
Pressure 1012 hPa
Visibility: 6000 m

METAR: LFMV 200130Z AUTO 30002KT 6000 NSC 02/M00 Q1012

Time: 02:47 (01:47 UTC)

Forecast

The report was made 11 hours and 47 minutes ago, at 14:00 UTC
Forecast valid from 19 at 15 UTC to 20 at 15 UTC
Wind 5 kt from variable directions
Visibility 10 km or more
no clouds below 1500 m and no cumulonimbus
Temporary
from 19 at 22 UTC to 20 at 01 UTC
Visibility: 4000 m
mist

TAF: LFMV 191400Z 1915/2015 VRB05KT CAVOK TEMPO 1922/2001 4000 BR

Weather observations and forecasts of more than 4000 airports (METAR and TAF reports).

The available stations are represented by yellow and red dots on the map.

Hover mouse over dot to see the name of the station.

Then click to see weather observations and forecasts.

To change the map : click on the green buttons with a black cross to zoom in, on the green button with a dash to zoom out, or on the green arrows for adjacent maps.


METAR-TAF: